createdAt,value
2023-05-09T00:01:42.311Z,101846.78
2023-05-09T00:06:35.487Z,101825.06
2023-05-09T00:11:30.876Z,101859.09
2023-05-09T00:16:24.422Z,101858.38
2023-05-09T00:21:18.889Z,101858.53
2023-05-09T00:26:12.376Z,101869.03
2023-05-09T00:31:09.358Z,101863.03
2023-05-09T00:36:02.498Z,101860.53
2023-05-09T00:40:57.093Z,101860.53
2023-05-09T00:45:50.913Z,101870.22
2023-05-09T00:50:44.357Z,101837.47
2023-05-09T00:55:37.701Z,101873.13
2023-05-09T01:00:32.546Z,101878.47
2023-05-09T01:05:31.768Z,101874.31
2023-05-09T01:10:32.929Z,101844.44
2023-05-09T01:15:32.456Z,101853.66
2023-05-09T01:20:34.911Z,101834.38
2023-05-09T01:25:43.600Z,101864.19
2023-05-09T01:30:39.345Z,101865.19
2023-05-09T01:35:37.064Z,101840.78
2023-05-09T01:40:33.618Z,101876.59
2023-05-09T01:45:28.222Z,101867.09
2023-05-09T01:50:24.237Z,101853.81
2023-05-09T01:55:19.987Z,101855.03
2023-05-09T02:00:15.356Z,101859.06
2023-05-09T02:05:12.914Z,101865.19
2023-05-09T02:10:10.269Z,101854.28
2023-05-09T02:15:04.061Z,101852.44
2023-05-09T02:19:57.388Z,101872.09
2023-05-09T02:24:50.940Z,101852.81
2023-05-09T02:29:56.366Z,101814.03
2023-05-09T02:34:52.266Z,101857.38
2023-05-09T02:39:45.652Z,101885.38
2023-05-09T02:44:39.951Z,101855.69
2023-05-09T02:49:34.724Z,101875.31
2023-05-09T02:54:29.901Z,101880.59
2023-05-09T02:59:23.210Z,101860.63
2023-05-09T03:04:16.688Z,101868.22
2023-05-09T03:09:11.413Z,101877.44
2023-05-09T03:14:06.407Z,101886.06
2023-05-09T03:18:59.678Z,101891.47
2023-05-09T03:23:53.090Z,101894.16
2023-05-09T03:28:48.963Z,101912.84
2023-05-09T03:33:42.509Z,101925.75
2023-05-09T03:38:36.435Z,101894.56
2023-05-09T03:43:29.985Z,101924.97
2023-05-09T03:48:24.614Z,101937.00
2023-05-09T03:53:20.629Z,101924.53
2023-05-09T03:58:16.100Z,101953.34
2023-05-09T04:03:10.867Z,101930.56
2023-05-09T04:08:09.720Z,101958.47
2023-05-09T04:13:03.263Z,101938.19
2023-05-09T04:17:58.020Z,101969.78
2023-05-09T04:22:53.290Z,101968.78
2023-05-09T04:27:48.685Z,101972.44
2023-05-09T04:32:46.052Z,101979.19
2023-05-09T04:37:40.161Z,101976.59
2023-05-09T04:42:33.889Z,101962.44
2023-05-09T04:47:28.934Z,101964.06
2023-05-09T04:52:24.795Z,101963.84
2023-05-09T04:57:19.171Z,101965.47
2023-05-09T05:02:18.334Z,101966.34
2023-05-09T05:07:14.124Z,101967.03
2023-05-09T05:12:09.758Z,101963.38
2023-05-09T05:17:04.678Z,101954.84
2023-05-09T05:22:04.451Z,101985.34
2023-05-09T05:27:00.224Z,101989.59
2023-05-09T05:31:54.215Z,101989.44
2023-05-09T13:06:34.570Z,101879.31
2023-05-09T13:11:28.083Z,101873.19
2023-05-09T13:16:21.363Z,101867.66
2023-05-09T13:21:14.481Z,101834.09
2023-05-09T13:26:09.126Z,101851.69
2023-05-09T13:31:19.416Z,101864.19
2023-05-09T13:36:12.798Z,101869.25
2023-05-09T13:41:06.168Z,101863.28
2023-05-09T13:46:01.147Z,101835.13
2023-05-09T13:50:54.572Z,101823.75
2023-05-09T13:55:47.732Z,101843.09
2023-05-09T14:00:41.742Z,101873.03
2023-05-09T14:05:36.200Z,101864.03
2023-05-09T14:10:29.204Z,101866.44
2023-05-09T14:15:22.438Z,101868.34
2023-05-09T14:20:16.289Z,101855.53
2023-05-09T14:25:11.551Z,101854.38
2023-05-09T14:30:07.745Z,101861.09
2023-05-09T14:35:00.963Z,101868.56
2023-05-09T14:39:56.702Z,101855.03
2023-05-09T14:44:51.237Z,101841.69
2023-05-09T14:49:48.645Z,101864.72
2023-05-09T14:54:42.330Z,101865.44
2023-05-09T14:59:37.076Z,101852.00
2023-05-09T15:04:31.930Z,101856.91
2023-05-09T15:09:25.091Z,101847.06
2023-05-09T15:14:18.317Z,101851.38
2023-05-09T15:19:12.610Z,101835.41
2023-05-09T15:24:08.138Z,101847.38
2023-05-09T15:29:01.345Z,101859.31
2023-05-09T15:33:54.528Z,101856.66
2023-05-09T15:38:49.724Z,101840.25
2023-05-09T15:43:44.673Z,101825.63
2023-05-09T15:48:37.839Z,101855.25
2023-05-09T15:53:31.023Z,101855.78
2023-05-09T15:58:24.107Z,101859.09
2023-05-09T16:03:21.091Z,101854.03
2023-05-09T16:08:14.503Z,101842.72
2023-05-09T16:13:08.825Z,101849.66
2023-05-09T16:18:02.103Z,101862.75
2023-05-09T16:22:56.803Z,101870.25
2023-05-09T16:27:49.973Z,101853.69
2023-05-09T16:32:43.699Z,101868.91
2023-05-09T16:37:36.956Z,101861.16
2023-05-09T16:42:31.547Z,101852.00
2023-05-09T16:47:24.713Z,101872.75
2023-05-09T16:52:18.140Z,101845.81
2023-05-09T16:57:11.317Z,101867.06
2023-05-09T17:02:05.968Z,101861.72
2023-05-09T17:06:59.372Z,101846.13
2023-05-09T17:11:52.496Z,101869.38
2023-05-09T17:16:45.668Z,101898.72
2023-05-09T17:21:41.801Z,101869.28
2023-05-09T17:26:35.167Z,101906.28
2023-05-09T17:31:28.433Z,101876.53
2023-05-09T17:36:21.909Z,101884.91
2023-05-09T17:41:16.577Z,101893.22
2023-05-09T17:46:11.198Z,101910.50
2023-05-09T17:51:15.621Z,101908.47
2023-05-09T17:56:11.425Z,101861.56
2023-05-09T18:01:06.004Z,101909.41
2023-05-09T18:06:00.468Z,101843.19
2023-05-09T18:10:54.774Z,101936.22
2023-05-09T18:15:48.180Z,101918.59
2023-05-09T18:20:42.819Z,101940.59
2023-05-09T18:25:36.239Z,101939.66
2023-05-09T18:30:29.439Z,101943.28
2023-05-09T18:35:22.770Z,101905.00
2023-05-09T18:40:17.822Z,101920.56
2023-05-09T18:45:12.053Z,101919.81
2023-05-09T18:50:07.235Z,101956.47
2023-05-09T18:55:00.650Z,101964.88
2023-05-09T18:59:56.069Z,101897.66
2023-05-09T19:04:50.594Z,101969.88
2023-05-09T19:09:43.789Z,101964.13
2023-05-09T19:14:37.920Z,101942.22
2023-05-09T19:19:42.225Z,101962.69
2023-05-09T19:24:35.428Z,101956.00
2023-05-09T19:29:28.673Z,101908.69
2023-05-09T19:34:23.035Z,101956.94
2023-05-09T19:39:18.065Z,101905.75
2023-05-09T19:44:11.282Z,101953.91
2023-05-09T19:49:04.944Z,101904.78
2023-05-09T19:53:58.174Z,101944.63
2023-05-09T19:58:52.706Z,101948.38
2023-05-09T20:03:47.941Z,101913.13
2023-05-09T20:08:41.310Z,101859.34
2023-05-09T20:13:34.470Z,101948.47
2023-05-09T20:18:29.080Z,101953.16
2023-05-09T20:23:22.463Z,101883.34
2023-05-09T20:28:20.143Z,101939.94
2023-05-09T20:33:13.901Z,101920.91
2023-05-09T20:38:09.476Z,101887.94
2023-05-09T20:43:08.784Z,101925.50
2023-05-09T20:48:04.053Z,101858.72
2023-05-09T20:52:57.127Z,101932.78
2023-05-09T20:57:51.756Z,101873.84
2023-05-09T21:02:45.034Z,101891.97
2023-05-09T21:07:38.257Z,101866.81
2023-05-09T21:12:34.527Z,101885.78
2023-05-09T21:17:34.009Z,101907.19
2023-05-09T21:22:27.144Z,101925.06
2023-05-09T21:27:20.408Z,101882.16
2023-05-09T21:32:13.470Z,101922.88
2023-05-09T21:37:08.047Z,101919.88
2023-05-09T21:42:01.270Z,101891.28
2023-05-09T21:46:56.131Z,101907.69
2023-05-09T21:51:49.315Z,101914.50
2023-05-09T21:56:43.844Z,101817.59
2023-05-09T22:01:37.160Z,101907.38
2023-05-09T22:06:30.358Z,101910.47
2023-05-09T22:11:23.488Z,101863.38
2023-05-09T22:16:18.749Z,101901.19
2023-05-09T22:21:12.712Z,101896.03
2023-05-09T22:26:06.209Z,101811.72
2023-05-09T22:30:59.501Z,101860.88
2023-05-09T22:35:54.067Z,101894.78
2023-05-09T22:40:47.304Z,101878.97
2023-05-09T22:45:40.590Z,101895.78
2023-05-09T22:50:35.145Z,101824.38
2023-05-09T22:55:30.075Z,101855.25
2023-05-09T23:00:24.581Z,101824.03
2023-05-09T23:05:20.326Z,101715.28
2023-05-09T23:10:13.747Z,101870.94
2023-05-09T23:15:11.592Z,101862.41
2023-05-09T23:20:05.482Z,101860.00
2023-05-09T23:24:59.773Z,101814.53
2023-05-09T23:29:52.913Z,101854.47
2023-05-09T23:34:47.594Z,101740.50
2023-05-09T23:39:41.944Z,101847.00
2023-05-09T23:44:35.449Z,101841.09
2023-05-09T23:49:29.087Z,101824.31
2023-05-09T23:54:24.533Z,101838.56
2023-05-09T23:59:17.727Z,101808.78
